Time;durP1;ratioP1;P1;durP2;ratioP2;P2;SDS_P1;SDS_P2;PMS_P1;PMS_P2;Temp;Humidity;BMP_temperature;BMP_pressure;BME280_temperature;BME280_humidity;BME280_pressure;Samples;Min_cycle;Max_cycle;Signal;HPM_P1;HPM_P2
2022/01/19 00:01:07;;;;;;;9.98;7.50;;;;;;;4.87;82.30;99662.22;4072682;29;20206;-83
2022/01/19 00:03:11;;;;;;;9.48;8.10;;;;;;;4.81;82.32;99662.34;4074806;29;20607;-83
2022/01/19 00:05:14;;;;;;;12.07;8.63;;;;;;;4.78;81.84;99652.94;4074329;29;20643;-83
2022/01/19 00:07:19;;;;;;;11.98;8.35;;;;;;;4.79;82.43;99652.03;4073918;29;20219;-83
2022/01/19 00:09:26;;;;;;;10.68;7.22;;;;;;;4.82;82.06;99649.41;4077089;29;20218;-83
2022/01/19 00:11:29;;;;;;;10.75;7.45;;;;;;;4.85;82.29;99638.16;4074594;29;20199;-83
2022/01/19 00:13:32;;;;;;;12.05;7.50;;;;;;;4.85;81.81;99630.41;4073670;29;20243;-84
2022/01/19 00:15:35;;;;;;;9.43;7.13;;;;;;;4.84;81.65;99623.53;4073714;29;20722;-83
2022/01/19 00:17:38;;;;;;;11.15;7.13;;;;;;;4.81;82.48;99611.53;4075043;29;20747;-83
2022/01/19 00:19:41;;;;;;;11.38;8.20;;;;;;;4.85;81.18;99612.31;4072917;29;20579;-83
2022/01/19 00:21:45;;;;;;;13.65;7.85;;;;;;;4.83;81.62;99614.94;4068525;29;20218;-83
2022/01/19 00:23:50;;;;;;;10.23;7.60;;;;;;;4.84;81.51;99613.19;4075975;29;20227;-83
2022/01/19 00:25:55;;;;;;;9.57;7.45;;;;;;;4.88;82.07;99617.44;4075593;29;20219;-83
2022/01/19 00:28:00;;;;;;;9.80;7.75;;;;;;;4.89;82.02;99617.38;4076610;29;20211;-83
2022/01/19 00:30:04;;;;;;;10.48;8.32;;;;;;;4.90;81.75;99615.66;4076807;29;20810;-83
2022/01/19 00:32:07;;;;;;;10.77;7.78;;;;;;;4.92;81.46;99616.47;4077217;29;20614;-83
2022/01/19 00:34:10;;;;;;;8.65;7.65;;;;;;;4.95;82.06;99621.59;4090463;29;20249;-83
2022/01/19 00:36:13;;;;;;;14.05;9.18;;;;;;;4.95;81.49;99632.78;4077889;29;20305;-83
2022/01/19 00:38:17;;;;;;;12.82;9.25;;;;;;;4.94;81.01;99640.56;4081824;29;20270;-83
2022/01/19 00:40:22;;;;;;;13.50;9.40;;;;;;;4.94;80.97;99645.72;4073435;29;20255;-83
2022/01/19 00:42:25;;;;;;;11.55;8.95;;;;;;;4.96;81.71;99641.34;4076748;29;20222;-83
2022/01/19 00:44:29;;;;;;;11.40;8.43;;;;;;;4.94;80.76;99632.81;4074051;29;20579;-83
2022/01/19 00:46:34;;;;;;;12.43;9.40;;;;;;;4.90;80.82;99634.59;4062538;29;20204;-83
2022/01/19 00:48:40;;;;;;;10.73;8.95;;;;;;;4.91;80.77;99640.63;4063188;29;20211;-84
2022/01/19 00:50:43;;;;;;;12.10;8.35;;;;;;;4.88;81.71;99638.09;4079865;29;20211;-83
2022/01/19 00:52:46;;;;;;;10.00;7.97;;;;;;;4.88;81.40;99632.94;4075374;29;20211;-83
2022/01/19 00:54:49;;;;;;;10.63;9.18;;;;;;;4.90;81.35;99632.03;4074787;29;20789;-83
2022/01/19 00:56:54;;;;;;;10.40;8.10;;;;;;;4.84;81.19;99627.00;4069237;29;20210;-84
2022/01/19 00:58:59;;;;;;;11.18;8.48;;;;;;;4.83;81.54;99635.59;4075488;29;20207;-84
2022/01/19 01:01:02;;;;;;;12.45;8.70;;;;;;;4.83;82.11;99643.34;4059045;29;20591;-83
2022/01/19 01:03:06;;;;;;;13.25;8.50;;;;;;;4.81;81.50;99644.25;4073859;29;20218;-83
2022/01/19 01:05:10;;;;;;;11.27;8.50;;;;;;;4.79;81.18;99635.69;4088501;29;20292;-84
2022/01/19 01:07:13;;;;;;;11.45;8.57;;;;;;;4.78;81.73;99636.56;4089153;29;20289;-83
2022/01/19 01:09:17;;;;;;;11.57;8.55;;;;;;;4.75;81.62;99636.63;4079238;29;20260;-84
2022/01/19 01:11:28;;;;;;;10.75;8.50;;;;;;;4.73;82.21;99638.41;4078008;29;20610;-83
2022/01/19 01:16:01;;;;;;;11.57;8.45;;;;;;;4.68;81.60;99645.41;4072303;29;20394;-84
2022/01/19 01:18:19;;;;;;;11.48;8.98;;;;;;;4.65;81.29;99649.81;4073818;29;20222;-83
2022/01/19 01:20:23;;;;;;;12.52;9.30;;;;;;;4.60;82.75;99642.16;4075052;29;20210;-83
2022/01/19 01:22:26;;;;;;;10.55;8.48;;;;;;;4.55;82.32;99643.09;4080820;29;20229;-83
2022/01/19 01:24:29;;;;;;;10.30;8.02;;;;;;;4.47;80.90;99632.09;4076795;29;20231;-83
2022/01/19 01:26:33;;;;;;;10.05;8.30;;;;;;;4.39;80.94;99632.22;4077598;29;20214;-83
2022/01/19 01:28:37;;;;;;;10.23;8.38;;;;;;;4.30;81.47;99616.91;4073914;29;20207;-83
2022/01/19 01:30:41;;;;;;;15.30;8.90;;;;;;;4.23;82.60;99607.56;4064936;29;20743;-84
2022/01/19 01:32:44;;;;;;;11.77;8.80;;;;;;;4.18;81.88;99610.28;4076986;29;20693;-83
2022/01/19 01:34:47;;;;;;;13.13;8.80;;;;;;;4.11;81.61;99606.13;4075324;29;20231;-83
2022/01/19 01:36:50;;;;;;;12.88;9.75;;;;;;;3.97;82.02;99608.94;4081609;29;20207;-83
2022/01/19 01:38:53;;;;;;;14.13;10.18;;;;;;;3.89;82.72;99618.56;4079326;29;20554;-83
2022/01/19 01:40:57;;;;;;;14.25;9.63;;;;;;;3.82;82.55;99621.28;4078723;29;20214;-83
2022/01/19 01:43:01;;;;;;;15.65;9.88;;;;;;;3.79;82.93;99631.66;4078820;29;20294;-82
2022/01/19 01:45:11;;;;;;;14.70;9.85;;;;;;;3.77;83.22;99628.22;4062857;29;20681;-82
2022/01/19 01:47:17;;;;;;;13.50;9.32;;;;;;;3.71;83.49;99628.31;4062376;29;20199;-81
2022/01/19 01:49:27;;;;;;;12.20;9.18;;;;;;;3.66;83.70;99624.97;4075573;29;20203;-82
2022/01/19 01:54:06;;;;;;;12.45;9.45;;;;;;;3.46;83.47;99627.03;4013186;29;20213;-82
2022/01/19 01:56:13;;;;;;;11.70;8.93;;;;;;;3.40;84.77;99616.81;4063816;29;20237;-82
2022/01/19 01:58:16;;;;;;;10.30;8.35;;;;;;;3.36;84.76;99612.56;4079968;29;20709;-81
2022/01/19 02:00:30;;;;;;;15.38;9.02;;;;;;;3.40;84.76;99618.56;4058982;29;20611;-82
2022/01/19 02:02:35;;;;;;;13.98;9.63;;;;;;;3.40;85.09;99610.81;4086915;29;20218;-82
2022/01/19 02:04:41;;;;;;;13.25;10.23;;;;;;;3.41;85.51;99610.81;4076770;29;20211;-82
2022/01/19 02:07:06;;;;;;;12.48;8.95;;;;;;;3.43;85.49;99600.47;4080524;29;20214;-82
2022/01/19 02:09:20;;;;;;;12.70;9.38;;;;;;;3.45;84.70;99596.13;4079079;29;20211;-82
2022/01/19 02:15:48;;;;;;;15.00;10.18;;;;;;;3.44;84.99;99586.69;4072845;29;20211;-82
2022/01/19 02:16:25;;;;;;;14.13;9.68;;;;;;;3.45;85.50;99589.22;4088899;29;20238;-82
2022/01/19 02:23:18;;;;;;;13.82;9.65;;;;;;;3.37;84.85;99575.63;4062965;29;20756;-82
2022/01/19 02:25:27;;;;;;;14.38;10.15;;;;;;;3.33;84.92;99581.69;4088641;29;20229;-82
2022/01/19 02:40:10;;;;;;;12.30;8.50;;;;;;;3.11;84.94;99550.28;4087516;29;20241;-82
2022/01/19 02:41:45;;;;;;;13.77;9.05;;;;;;;3.11;85.24;99539.97;4081013;29;20213;-82
2022/01/19 02:43:50;;;;;;;11.57;8.38;;;;;;;3.12;84.81;99533.97;4059821;29;20226;-84
2022/01/19 02:50:35;;;;;;;10.23;7.40;;;;;;;3.04;85.63;99517.78;4073939;29;20218;-84
2022/01/19 02:52:39;;;;;;;12.50;7.40;;;;;;;2.98;85.56;99525.63;4077237;29;20223;-82
2022/01/19 02:54:43;;;;;;;12.32;7.35;;;;;;;2.95;85.83;99515.34;4073407;29;20207;-82
2022/01/19 02:56:51;;;;;;;9.88;7.28;;;;;;;2.93;86.30;99505.06;4086957;29;20241;-81
2022/01/19 02:58:56;;;;;;;10.18;7.68;;;;;;;2.90;86.07;99510.28;4077112;29;20206;-81
2022/01/19 03:10:25;;;;;;;9.40;7.65;;;;;;;2.79;85.51;99487.28;4072253;29;20251;-81
2022/01/19 03:12:28;;;;;;;9.20;7.30;;;;;;;2.77;85.75;99489.00;4073623;29;20257;-82
2022/01/19 03:14:31;;;;;;;14.20;8.90;;;;;;;2.77;86.20;99486.44;4070403;29;20749;-82
2022/01/19 03:16:34;;;;;;;11.02;7.95;;;;;;;2.76;86.23;99479.59;4074243;29;20241;-82
2022/01/19 03:18:38;;;;;;;10.40;8.10;;;;;;;2.73;86.45;99480.50;4074017;29;20245;-82
2022/01/19 03:20:41;;;;;;;12.52;8.40;;;;;;;2.74;86.13;99469.31;4074116;29;20301;-82
2022/01/19 03:22:52;;;;;;;12.45;8.48;;;;;;;2.76;86.37;99472.72;4072636;29;20211;-82
2022/01/19 03:24:56;;;;;;;12.98;7.80;;;;;;;2.74;85.79;99471.91;4060508;29;20217;-82
2022/01/19 03:27:00;;;;;;;11.07;7.40;;;;;;;2.75;86.17;99468.44;4075105;29;20268;-82
2022/01/19 03:29:27;;;;;;;9.68;6.85;;;;;;;2.71;86.07;99459.06;4076801;29;20205;-82
2022/01/19 03:31:30;;;;;;;10.55;7.03;;;;;;;2.69;86.00;99458.25;4059253;29;20222;-82
2022/01/19 03:33:34;;;;;;;11.27;7.20;;;;;;;2.68;86.34;99456.53;4076334;29;20213;-82
2022/01/19 03:35:38;;;;;;;13.00;8.20;;;;;;;2.57;86.51;99440.41;4071128;29;20250;-82
2022/01/19 03:37:42;;;;;;;14.88;8.75;;;;;;;2.48;86.80;99437.13;4090499;29;20205;-81
2022/01/19 03:39:45;;;;;;;11.95;7.90;;;;;;;2.44;87.08;99441.47;4075939;29;20219;-82
2022/01/19 03:41:50;;;;;;;11.52;7.60;;;;;;;2.40;86.80;99433.81;4060822;29;20302;-82
2022/01/19 03:43:53;;;;;;;11.70;8.30;;;;;;;2.35;86.92;99430.47;4070492;29;20720;-82
2022/01/19 03:45:59;;;;;;;14.35;8.27;;;;;;;2.35;86.95;99428.72;4075249;29;20206;-82
2022/01/19 03:48:27;;;;;;;10.85;7.78;;;;;;;2.34;87.33;99431.34;4073670;29;20229;-82
2022/01/19 03:50:31;;;;;;;12.77;7.93;;;;;;;2.37;87.19;99421.84;4058856;29;20616;-82
2022/01/19 03:52:34;;;;;;;13.93;8.00;;;;;;;2.34;87.37;99424.44;4073789;29;20207;-82
2022/01/19 03:54:42;;;;;;;10.88;7.82;;;;;;;2.33;86.61;99415.91;4081054;29;20685;-82
2022/01/19 03:56:45;;;;;;;12.70;8.18;;;;;;;2.32;86.95;99414.22;4077731;29;20714;-82
2022/01/19 03:58:49;;;;;;;10.20;7.50;;;;;;;2.27;86.62;99401.44;4070753;29;20225;-82
2022/01/19 04:00:56;;;;;;;13.48;7.75;;;;;;;2.26;86.53;99399.72;4062582;29;20241;-82
2022/01/19 04:02:59;;;;;;;10.68;8.00;;;;;;;2.25;86.59;99399.75;4062435;29;21655;-82
2022/01/19 04:05:07;;;;;;;13.02;8.05;;;;;;;2.27;86.76;99395.41;4071146;29;20314;-82
2022/01/19 04:07:14;;;;;;;15.38;8.27;;;;;;;2.27;86.78;99392.84;4074175;29;20204;-82
2022/01/19 04:09:20;;;;;;;14.38;7.47;;;;;;;2.25;86.69;99387.72;4074124;29;20297;-82
2022/01/19 04:11:25;;;;;;;11.45;7.97;;;;;;;2.23;86.86;99386.06;4062189;29;20214;-82
2022/01/19 04:13:44;;;;;;;12.00;7.55;;;;;;;2.19;86.67;99386.97;4062715;29;20230;-82
2022/01/19 04:15:49;;;;;;;11.73;7.95;;;;;;;2.15;87.20;99378.47;4076478;29;20269;-82
2022/01/19 04:17:54;;;;;;;11.43;7.22;;;;;;;2.17;87.55;99378.44;4074796;29;20237;-82
2022/01/19 04:19:57;;;;;;;12.45;7.70;;;;;;;2.16;87.50;99379.31;4071494;29;20243;-82
2022/01/19 04:22:05;;;;;;;14.52;8.15;;;;;;;2.16;87.60;99371.59;4057214;29;20281;-82
2022/01/19 04:24:09;;;;;;;10.85;7.80;;;;;;;2.15;87.43;99370.75;4076561;29;20301;-82
2022/01/19 04:26:12;;;;;;;14.20;8.50;;;;;;;2.13;87.86;99369.06;4071217;29;20230;-82
2022/01/19 04:28:17;;;;;;;14.15;8.35;;;;;;;2.14;87.64;99370.75;4075768;29;20726;-82
2022/01/19 04:30:27;;;;;;;14.07;8.57;;;;;;;2.11;87.90;99366.50;4075905;29;20217;-82
2022/01/19 04:32:40;;;;;;;13.27;8.63;;;;;;;2.16;88.31;99366.44;4059380;29;20203;-82
2022/01/19 04:34:47;;;;;;;12.10;8.23;;;;;;;2.16;88.57;99366.44;4075175;29;20261;-82
2022/01/19 04:37:29;;;;;;;15.98;8.60;;;;;;;2.11;88.38;99355.38;4059612;29;20221;-82
2022/01/19 04:43:50;;;;;;;12.82;8.18;;;;;;;2.16;88.35;99354.41;4077751;29;20309;-82
2022/01/19 04:44:38;;;;;;;11.60;8.18;;;;;;;2.16;87.97;99351.00;4073751;29;20207;-82
2022/01/19 04:54:13;;;;;;;12.00;8.40;;;;;;;2.09;87.83;99332.25;4066288;29;20737;-82
2022/01/19 05:03:58;;;;;;;13.77;8.48;;;;;;;2.01;87.17;99310.09;4079521;29;20786;-82
2022/01/19 05:06:20;;;;;;;10.10;6.45;;;;;;;2.04;88.00;99310.03;4076504;29;20312;-82
2022/01/19 05:08:42;;;;;;;11.38;6.78;;;;;;;2.15;87.83;99313.28;4074506;29;20222;-82
2022/01/19 05:13:26;;;;;;;8.88;6.30;;;;;;;2.22;87.47;99299.47;4055693;29;20269;-82
2022/01/19 05:15:29;;;;;;;9.95;6.25;;;;;;;2.26;87.16;99306.25;4061269;29;20210;-82
2022/01/19 05:17:36;;;;;;;13.95;7.15;;;;;;;2.23;86.92;99304.56;4029050;29;20280;-82
2022/01/19 05:19:39;;;;;;;12.02;8.05;;;;;;;2.23;86.96;99304.56;4079273;29;20218;-82
2022/01/19 05:21:45;;;;;;;14.85;8.68;;;;;;;2.20;86.60;99312.34;4059646;29;20711;-85
2022/01/19 05:23:49;;;;;;;10.48;8.10;;;;;;;2.17;86.40;99307.25;4073878;29;20222;-83
2022/01/19 05:25:53;;;;;;;11.32;7.32;;;;;;;2.15;86.35;99308.13;4079452;29;20222;-84
2022/01/19 05:28:06;;;;;;;13.50;8.10;;;;;;;2.13;86.37;99303.00;4076479;29;20206;-82
2022/01/19 05:30:10;;;;;;;18.02;8.43;;;;;;;2.16;86.44;99304.69;4076596;29;20270;-82
2022/01/19 05:32:14;;;;;;;11.32;8.00;;;;;;;2.19;86.43;99292.63;4060112;29;20219;-81
2022/01/19 05:34:17;;;;;;;10.32;7.45;;;;;;;2.19;86.15;99295.19;4075369;29;20221;-82
2022/01/19 05:36:34;;;;;;;11.93;7.88;;;;;;;2.23;86.19;99293.44;4082484;29;20208;-81
2022/01/19 05:39:08;;;;;;;11.70;7.45;;;;;;;2.25;85.82;99281.41;4075862;29;20218;-83
2022/01/19 05:41:17;;;;;;;10.80;6.72;;;;;;;2.26;85.38;99291.66;4070204;29;20230;-82
2022/01/19 05:43:21;;;;;;;11.55;6.90;;;;;;;2.27;85.83;99284.78;4061688;29;20632;-81
2022/01/19 05:45:25;;;;;;;16.52;7.50;;;;;;;2.25;85.66;99291.69;4065992;29;20630;-82
2022/01/19 05:47:30;;;;;;;16.85;10.50;;;;;;;2.20;85.85;99293.50;4085414;29;20191;-84
2022/01/19 05:49:33;;;;;;;13.10;8.43;;;;;;;2.17;85.67;99293.53;4065823;29;20250;-83
2022/01/19 05:51:36;;;;;;;11.63;7.88;;;;;;;2.10;84.87;99295.34;4073352;29;20747;-82
2022/01/19 05:53:41;;;;;;;17.02;7.85;;;;;;;2.02;85.06;99289.47;4059875;29;20226;-82
2022/01/19 05:55:47;;;;;;;10.70;7.18;;;;;;;2.01;84.52;99289.50;4084186;29;20213;-82
2022/01/19 05:57:50;;;;;;;12.25;7.45;;;;;;;1.95;84.59;99290.44;4077999;29;20321;-82
2022/01/19 05:59:53;;;;;;;13.93;8.15;;;;;;;1.89;85.12;99284.56;4074035;29;20863;-82
2022/01/19 06:01:56;;;;;;;12.57;8.10;;;;;;;1.87;85.07;99278.59;4063218;29;20245;-82
2022/01/19 06:04:00;;;;;;;15.23;8.70;;;;;;;1.87;85.92;99275.19;4073006;29;20217;-82
2022/01/19 06:06:21;;;;;;;14.18;8.82;;;;;;;1.90;85.89;99281.97;4070030;29;20245;-82
2022/01/19 06:08:44;;;;;;;10.98;7.90;;;;;;;1.97;85.60;99275.00;4072737;29;20214;-82
2022/01/19 06:10:55;;;;;;;16.75;9.27;;;;;;;1.94;85.86;99275.06;4076331;29;20213;-82
2022/01/19 06:13:00;;;;;;;16.67;9.00;;;;;;;1.91;86.33;99277.69;4057528;29;20289;-83
2022/01/19 06:15:05;;;;;;;13.65;8.52;;;;;;;1.93;85.62;99275.94;4072785;29;20262;-83
2022/01/19 06:17:09;;;;;;;13.18;8.35;;;;;;;1.93;85.51;99278.50;4073983;29;20257;-82
2022/01/19 06:19:14;;;;;;;11.48;7.78;;;;;;;1.94;85.70;99280.22;4077518;29;20672;-82
2022/01/19 06:21:17;;;;;;;10.98;8.13;;;;;;;1.95;85.78;99280.16;4073240;29;20376;-82
2022/01/19 06:23:24;;;;;;;13.52;7.55;;;;;;;1.99;86.56;99273.25;4072133;29;20281;-81
2022/01/19 06:25:39;;;;;;;11.77;8.00;;;;;;;2.01;87.16;99274.06;4062818;29;20221;-81
2022/01/19 06:27:44;;;;;;;14.02;7.47;;;;;;;2.09;87.03;99267.06;4061558;29;20253;-81
2022/01/19 06:29:47;;;;;;;13.73;7.90;;;;;;;2.12;87.24;99257.59;4074862;29;20281;-81
2022/01/19 06:31:51;;;;;;;12.45;8.57;;;;;;;2.13;87.71;99264.44;4076466;29;20249;-81
2022/01/19 06:33:54;;;;;;;13.23;8.57;;;;;;;2.11;87.22;99261.03;4072374;29;20234;-81
2022/01/19 06:36:05;;;;;;;12.30;8.27;;;;;;;2.14;87.27;99262.72;4078048;29;20427;-81
2022/01/19 06:38:12;;;;;;;13.82;8.60;;;;;;;2.18;86.87;99259.22;4077440;29;20274;-81
2022/01/19 06:40:27;;;;;;;17.92;8.45;;;;;;;2.18;87.69;99259.22;4079185;29;20217;-81
2022/01/19 06:42:30;;;;;;;13.77;7.82;;;;;;;2.23;88.12;99266.00;4076081;29;20689;-81
2022/01/19 06:44:37;;;;;;;20.48;9.00;;;;;;;2.33;87.16;99260.66;4082409;29;20254;-81
2022/01/19 06:46:40;;;;;;;13.77;8.65;;;;;;;2.46;87.34;99269.00;4057741;29;20219;-81
2022/01/19 06:48:43;;;;;;;14.90;9.70;;;;;;;2.52;87.41;99258.59;4075637;29;20210;-81
2022/01/19 06:50:48;;;;;;;13.52;9.23;;;;;;;2.58;87.28;99259.34;4078338;29;20236;-81
2022/01/19 06:52:59;;;;;;;14.75;9.10;;;;;;;2.64;86.79;99256.66;4073225;29;20218;-82
2022/01/19 06:55:03;;;;;;;13.95;8.50;;;;;;;2.70;86.67;99259.09;4063361;29;20218;-81
2022/01/19 06:57:06;;;;;;;18.92;10.95;;;;;;;2.75;86.85;99259.84;4077770;29;20221;-82
2022/01/19 06:59:13;;;;;;;18.92;9.70;;;;;;;2.83;86.58;99263.16;4053630;29;20611;-82
2022/01/19 07:01:34;;;;;;;15.05;9.82;;;;;;;2.85;86.23;99266.53;4077809;29;20207;-82
2022/01/19 07:03:49;;;;;;;17.73;9.80;;;;;;;2.88;86.30;99259.59;4076479;29;20305;-82
2022/01/19 07:05:58;;;;;;;16.40;10.05;;;;;;;2.92;86.76;99250.09;4074705;29;20204;-82
2022/01/19 07:08:25;;;;;;;16.65;9.10;;;;;;;2.99;86.21;99262.84;4062648;29;20746;-82
2022/01/19 07:10:31;;;;;;;17.92;9.45;;;;;;;3.04;85.82;99255.03;4072713;29;20258;-82
2022/01/19 07:12:35;;;;;;;17.08;10.10;;;;;;;3.06;85.74;99258.41;4085318;29;21254;-82
2022/01/19 07:14:40;;;;;;;16.48;10.88;;;;;;;3.08;86.08;99257.50;4073463;29;20293;-82
2022/01/19 07:16:45;;;;;;;17.65;12.25;;;;;;;3.10;85.70;99255.72;4075807;29;20213;-82
2022/01/19 07:18:48;;;;;;;17.17;10.23;;;;;;;3.12;86.25;99266.84;4061741;29;20231;-82
2022/01/19 07:20:52;;;;;;;16.77;10.35;;;;;;;3.10;85.65;99255.72;4076368;29;20215;-82
2022/01/19 07:22:59;;;;;;;14.98;10.30;;;;;;;3.08;85.77;99257.50;4061631;29;20227;-82
2022/01/19 07:25:02;;;;;;;18.35;11.38;;;;;;;3.10;85.92;99258.31;4072602;29;20219;-81
2022/01/19 07:27:06;;;;;;;15.30;10.70;;;;;;;3.10;85.25;99257.47;4076040;29;20211;-82
2022/01/19 07:29:09;;;;;;;16.75;11.25;;;;;;;3.14;85.07;99251.34;4060841;29;20834;-82
2022/01/19 07:31:14;;;;;;;23.40;13.75;;;;;;;3.17;85.83;99256.44;4074862;29;20612;-82
2022/01/19 07:33:19;;;;;;;21.38;12.18;;;;;;;3.20;85.02;99248.66;4077214;29;20219;-82
2022/01/19 07:35:22;;;;;;;14.60;10.85;;;;;;;3.23;84.96;99251.16;4073799;29;20206;-82
2022/01/19 07:37:27;;;;;;;17.10;11.73;;;;;;;3.29;85.05;99247.59;4074897;29;20219;-81
2022/01/19 07:39:30;;;;;;;17.45;11.38;;;;;;;3.33;84.78;99248.38;4075382;29;20631;-82
2022/01/19 07:41:33;;;;;;;19.23;11.80;;;;;;;3.37;84.58;99239.69;4058910;29;20262;-81
2022/01/19 07:43:57;;;;;;;31.00;19.38;;;;;;;3.39;84.21;99236.19;4070713;29;20774;-81
2022/01/19 07:46:32;;;;;;;18.20;12.13;;;;;;;3.49;85.24;99235.13;4070136;29;20312;-81
2022/01/19 07:48:55;;;;;;;19.13;11.43;;;;;;;3.55;84.05;99239.25;4069630;29;20200;-81
2022/01/19 07:51:06;;;;;;;18.75;11.82;;;;;;;3.57;83.69;99233.19;4064347;29;20238;-81
2022/01/19 07:53:14;;;;;;;21.98;12.65;;;;;;;3.61;83.21;99228.81;4070294;29;20226;-81
2022/01/19 07:55:25;;;;;;;17.27;12.05;;;;;;;3.66;84.09;99230.41;4063690;29;20222;-82
2022/01/19 07:57:51;;;;;;;18.05;12.23;;;;;;;3.69;83.36;99222.59;4052613;29;20297;-82
2022/01/19 08:00:08;;;;;;;20.35;12.88;;;;;;;3.73;83.19;99213.94;4062272;29;20699;-82
2022/01/19 08:02:20;;;;;;;18.77;11.30;;;;;;;3.75;83.65;99219.88;4065338;29;20214;-82
2022/01/19 08:04:44;;;;;;;19.20;12.52;;;;;;;3.83;83.06;99211.09;4058453;29;21378;-83
2022/01/19 08:06:54;;;;;;;14.98;11.15;;;;;;;4.02;83.14;99211.50;4063958;29;20214;-83
2022/01/19 08:08:57;;;;;;;15.35;11.57;;;;;;;4.21;83.07;99208.41;4071337;29;20297;-82
2022/01/19 08:11:01;;;;;;;29.40;17.13;;;;;;;4.39;82.69;99202.75;4063946;29;20311;-82
2022/01/19 08:13:05;;;;;;;20.42;12.82;;;;;;;4.52;81.59;99204.97;4074500;29;20230;-82
2022/01/19 08:15:09;;;;;;;18.38;12.77;;;;;;;4.65;82.44;99211.50;4093197;29;20322;-83
2022/01/19 08:17:13;;;;;;;22.65;12.82;;;;;;;4.78;80.87;99207.69;4078354;29;20294;-83
2022/01/19 08:19:20;;;;;;;20.95;12.73;;;;;;;4.92;80.08;99200.41;4076854;29;20233;-83
2022/01/19 08:21:25;;;;;;;19.10;12.43;;;;;;;5.03;80.55;99199.22;4077946;29;20278;-83
2022/01/19 08:23:34;;;;;;;19.17;11.07;;;;;;;5.10;79.41;99202.44;4062127;29;20207;-83
2022/01/19 08:25:38;;;;;;;18.30;12.10;;;;;;;5.19;79.63;99196.13;4092671;29;20218;-82
2022/01/19 08:27:41;;;;;;;18.77;11.95;;;;;;;5.34;79.27;99197.44;4080291;29;20221;-83
2022/01/19 08:29:45;;;;;;;16.75;10.75;;;;;;;5.48;78.56;99192.69;4073597;29;20212;-83
2022/01/19 08:31:57;;;;;;;17.48;11.00;;;;;;;5.60;78.01;99189.72;4064421;29;20699;-83
2022/01/19 08:34:38;;;;;;;17.98;11.23;;;;;;;5.69;77.44;99183.34;4073073;29;20199;-82
2022/01/19 08:37:04;;;;;;;20.40;11.63;;;;;;;5.80;77.76;99180.44;4066440;29;20287;-82
2022/01/19 08:39:19;;;;;;;16.77;11.73;;;;;;;5.86;77.63;99196.63;4075133;29;20259;-82
2022/01/19 08:41:25;;;;;;;15.27;11.80;;;;;;;5.93;78.40;99189.53;4073795;29;21344;-82
2022/01/19 08:43:28;;;;;;;14.45;11.20;;;;;;;5.99;77.96;99202.28;4076640;29;20322;-82
2022/01/19 08:45:33;;;;;;;22.50;15.32;;;;;;;6.05;76.91;99207.25;4058853;29;20668;-82
2022/01/19 08:47:38;;;;;;;17.23;13.05;;;;;;;6.11;76.92;99216.50;4076665;29;20262;-81
2022/01/19 08:49:47;;;;;;;13.07;10.25;;;;;;;6.13;75.95;99206.94;4074231;29;20294;-82
2022/01/19 08:52:12;;;;;;;18.75;12.32;;;;;;;6.17;76.13;99207.69;4071744;29;20213;-81
2022/01/19 08:54:20;;;;;;;18.70;12.63;;;;;;;6.22;76.39;99210.97;4076073;29;20211;-82
2022/01/19 08:56:37;;;;;;;19.35;12.65;;;;;;;6.23;76.29;99208.31;4074416;29;20604;-82
2022/01/19 08:58:43;;;;;;;14.57;11.20;;;;;;;6.25;75.81;99201.34;4077774;29;20253;-82
2022/01/19 09:00:47;;;;;;;21.00;12.20;;;;;;;6.28;76.70;99209.00;4072115;29;20219;-82
2022/01/19 09:02:50;;;;;;;18.08;12.60;;;;;;;6.31;75.76;99206.31;4071842;29;20212;-82
2022/01/19 09:04:53;;;;;;;18.60;12.00;;;;;;;6.35;75.97;99207.06;4076325;29;20735;-82
2022/01/19 09:06:58;;;;;;;18.48;12.70;;;;;;;6.39;76.15;99204.31;4078244;28;20203;-82
2022/01/19 09:09:03;;;;;;;17.23;11.90;;;;;;;6.43;75.24;99203.31;4075814;29;20298;-82
2022/01/19 09:11:07;;;;;;;19.42;12.73;;;;;;;6.49;75.59;99204.84;4078572;29;20311;-82
2022/01/19 09:13:10;;;;;;;15.73;11.73;;;;;;;6.54;75.00;99197.75;4067808;29;20249;-82
2022/01/19 09:15:14;;;;;;;21.38;15.55;;;;;;;6.58;75.25;99197.59;4072793;29;20230;-82
2022/01/19 09:17:17;;;;;;;20.70;14.07;;;;;;;6.62;74.29;99205.22;4070541;29;20948;-82
2022/01/19 09:19:21;;;;;;;18.17;12.52;;;;;;;6.67;74.25;99199.88;4071244;29;20230;-82
2022/01/19 09:21:24;;;;;;;14.80;11.70;;;;;;;6.72;74.08;99196.22;4074615;29;20274;-82
2022/01/19 09:23:27;;;;;;;17.38;11.57;;;;;;;6.77;74.66;99202.09;4073429;29;20589;-82
2022/01/19 09:25:32;;;;;;;17.65;11.93;;;;;;;6.82;73.77;99205.34;4070258;29;20215;-82
2022/01/19 09:27:37;;;;;;;19.10;12.13;;;;;;;6.86;74.28;99195.72;4073080;29;20295;-82
2022/01/19 09:29:42;;;;;;;18.08;12.13;;;;;;;6.76;74.03;99200.38;4071479;29;20281;-82
2022/01/19 09:31:46;;;;;;;16.77;11.43;;;;;;;6.82;74.54;99201.91;4071007;29;20310;-82
2022/01/19 09:33:56;;;;;;;16.50;11.95;;;;;;;6.85;74.80;99197.47;4075181;29;20270;-83
2022/01/19 09:36:18;;;;;;;19.98;12.30;;;;;;;6.84;74.30;99187.16;4074622;29;20234;-83
2022/01/19 09:38:23;;;;;;;17.20;12.55;;;;;;;6.85;73.41;99192.28;4076558;29;20211;-82
2022/01/19 09:40:26;;;;;;;15.25;11.70;;;;;;;6.91;74.29;99194.66;4074058;29;20227;-82
2022/01/19 09:42:35;;;;;;;15.45;11.60;;;;;;;6.91;74.35;99186.03;4070834;29;20630;-82
2022/01/19 09:44:39;;;;;;;15.40;11.98;;;;;;;6.87;75.28;99185.31;4073138;29;20219;-82
2022/01/19 09:46:43;;;;;;;16.70;11.98;;;;;;;6.84;74.54;99184.56;4073041;29;20219;-82
2022/01/19 09:48:46;;;;;;;18.48;12.70;;;;;;;6.89;74.80;99182.66;4075514;29;20275;-82
2022/01/19 09:50:49;;;;;;;20.58;14.50;;;;;;;6.82;74.89;99184.59;4072699;29;20841;-82
2022/01/19 09:52:53;;;;;;;18.90;12.85;;;;;;;6.81;75.61;99176.88;4060776;29;20633;-82
2022/01/19 09:54:56;;;;;;;18.55;12.95;;;;;;;6.86;75.13;99175.00;4072998;29;20673;-82
2022/01/19 09:57:00;;;;;;;21.08;12.25;;;;;;;6.84;75.63;99164.69;4070473;29;20861;-82
2022/01/19 09:59:13;;;;;;;17.80;13.10;;;;;;;6.84;74.38;99162.09;4071795;29;20306;-83
2022/01/19 10:01:21;;;;;;;15.40;12.25;;;;;;;6.82;75.47;99156.09;4071758;29;22315;-83
2022/01/19 10:03:25;;;;;;;20.63;13.20;;;;;;;6.95;74.52;99151.31;4073999;29;20208;-83
2022/01/19 10:05:28;;;;;;;18.75;13.20;;;;;;;6.98;73.56;99149.47;4074970;29;20206;-83
2022/01/19 10:07:32;;;;;;;16.75;12.55;;;;;;;6.95;74.09;99153.91;4074192;29;20237;-83
2022/01/19 10:09:47;;;;;;;18.05;12.50;;;;;;;6.95;74.99;99159.09;4073974;29;20210;-83
2022/01/19 10:17:00;;;;;;;19.63;12.00;;;;;;;7.20;73.90;99129.56;4050307;29;20210;-83
2022/01/19 10:19:13;;;;;;;17.65;13.20;;;;;;;7.18;74.55;99132.22;4058465;29;20675;-83
2022/01/19 10:21:16;;;;;;;22.65;13.15;;;;;;;7.16;74.07;99121.06;4091540;29;20315;-83
2022/01/19 10:23:36;;;;;;;21.20;13.60;;;;;;;7.15;74.51;99114.19;4077480;29;20211;-83
2022/01/19 10:25:49;;;;;;;16.88;13.50;;;;;;;7.25;74.64;99118.13;4066718;29;20222;-83
2022/01/19 10:27:52;;;;;;;19.23;13.50;;;;;;;7.26;74.58;99114.63;4071355;29;20220;-83
2022/01/19 10:30:13;;;;;;;21.52;13.52;;;;;;;7.30;75.21;99115.34;4068833;29;20207;-83
2022/01/19 10:32:17;;;;;;;21.33;13.75;;;;;;;7.28;74.14;99107.63;4074216;29;20210;-83
2022/01/19 10:34:21;;;;;;;19.63;14.20;;;;;;;7.36;74.36;99100.38;4075175;29;20206;-83
2022/01/19 10:36:41;;;;;;;16.50;12.30;;;;;;;7.45;73.51;99092.22;4072333;29;20210;-83
2022/01/19 10:38:44;;;;;;;21.70;12.85;;;;;;;7.57;73.30;99086.56;4074899;29;20217;-83
2022/01/19 10:41:08;;;;;;;17.50;12.75;;;;;;;7.56;73.58;99087.44;4073831;29;20758;-83
2022/01/19 10:43:28;;;;;;;20.15;12.80;;;;;;;7.69;74.55;99084.28;4067519;29;20571;-83
2022/01/19 10:45:33;;;;;;;19.10;13.55;;;;;;;7.75;74.12;99091.00;4069841;29;20198;-83
2022/01/19 10:47:58;;;;;;;17.05;13.63;;;;;;;7.76;74.01;99088.34;4068620;29;20305;-83
2022/01/19 10:50:01;;;;;;;18.65;13.85;;;;;;;7.79;71.17;99089.97;4064134;29;20211;-83
2022/01/19 10:52:06;;;;;;;17.58;13.57;;;;;;;7.86;72.44;99081.00;4072122;29;20208;-83
2022/01/19 10:54:12;;;;;;;16.65;13.10;;;;;;;7.88;72.90;99076.59;4072878;29;20215;-83
2022/01/19 10:56:25;;;;;;;19.95;14.13;;;;;;;7.80;72.82;99079.50;4069117;29;20226;-83
2022/01/19 10:58:28;;;;;;;20.77;13.10;;;;;;;7.71;74.20;99076.44;4073391;29;20218;-83
2022/01/19 11:00:34;;;;;;;15.95;12.30;;;;;;;7.63;73.02;99074.16;4070048;29;20226;-83
2022/01/19 11:02:38;;;;;;;18.08;12.80;;;;;;;7.63;74.43;99074.16;4076664;29;20222;-82